Terminal Aerodrome Forecast
Issued by NWS

Current Version | Previous Version | Text Only | Print | Product List | Glossary On
Versions: 1 2 3 4 5 6 7 8 9 10 11 12 13 14 15 16 17 18 19 20 21
000
FTUS43 KILX 181100
TAFDEC
TAF
KDEC 181120Z 1812/1912 VRB03KT P6SM BKN020
     FM181300 VRB03KT P6SM OVC090
     FM181700 34003KT P6SM VCSH OVC040
      TEMPO 1817/1821 BKN030
     FM190400 VRB03KT P6SM SCT040 BKN250=

USA.gov is the U.S. government's official web portal to all federal, state and local government web resources and services.